sensor_id;sensor_type;location;lat;lon;timestamp;temperature;humidity
53045;DHT22;38930;52.766;6.884;2022-09-28T00:01:22;8.20;99.90
53045;DHT22;38930;52.766;6.884;2022-09-28T00:03:49;8.40;99.90
53045;DHT22;38930;52.766;6.884;2022-09-28T00:06:18;8.20;99.90
53045;DHT22;38930;52.766;6.884;2022-09-28T00:08:44;8.20;99.90
53045;DHT22;38930;52.766;6.884;2022-09-28T00:11:13;8.20;99.90
53045;DHT22;38930;52.766;6.884;2022-09-28T00:13:40;8.50;99.90
53045;DHT22;38930;52.766;6.884;2022-09-28T00:16:10;8.30;99.90
53045;DHT22;38930;52.766;6.884;2022-09-28T00:18:36;8.20;99.90
53045;DHT22;38930;52.766;6.884;2022-09-28T00:21:11;8.20;99.90
53045;DHT22;38930;52.766;6.884;2022-09-28T00:23:37;8.20;99.90
53045;DHT22;38930;52.766;6.884;2022-09-28T00:26:23;8.20;99.90
53045;DHT22;38930;52.766;6.884;2022-09-28T00:28:53;8.20;99.90
53045;DHT22;38930;52.766;6.884;2022-09-28T00:31:19;8.20;99.90
53045;DHT22;38930;52.766;6.884;2022-09-28T00:33:52;8.20;99.90
53045;DHT22;38930;52.766;6.884;2022-09-28T00:36:19;8.10;99.90
53045;DHT22;38930;52.766;6.884;2022-09-28T00:38:45;8.20;99.90
53045;DHT22;38930;52.766;6.884;2022-09-28T00:41:11;8.10;99.90
53045;DHT22;38930;52.766;6.884;2022-09-28T00:43:36;8.00;99.90
53045;DHT22;38930;52.766;6.884;2022-09-28T00:46:12;8.60;99.90
53045;DHT22;38930;52.766;6.884;2022-09-28T00:48:41;8.00;99.90
53045;DHT22;38930;52.766;6.884;2022-09-28T00:51:11;8.00;99.90
53045;DHT22;38930;52.766;6.884;2022-09-28T00:53:39;8.10;99.90
53045;DHT22;38930;52.766;6.884;2022-09-28T00:56:11;8.00;99.90
53045;DHT22;38930;52.766;6.884;2022-09-28T00:58:43;7.90;99.90
53045;DHT22;38930;52.766;6.884;2022-09-28T01:01:10;7.90;99.90
53045;DHT22;38930;52.766;6.884;2022-09-28T01:03:36;7.90;99.90
53045;DHT22;38930;52.766;6.884;2022-09-28T01:06:03;7.80;99.90
53045;DHT22;38930;52.766;6.884;2022-09-28T01:08:31;7.80;99.90
53045;DHT22;38930;52.766;6.884;2022-09-28T01:10:59;7.80;99.90
53045;DHT22;38930;52.766;6.884;2022-09-28T01:13:25;7.80;99.90
53045;DHT22;38930;52.766;6.884;2022-09-28T01:16:18;7.80;99.90
53045;DHT22;38930;52.766;6.884;2022-09-28T01:21:55;7.80;99.90
53045;DHT22;38930;52.766;6.884;2022-09-28T01:24:42;7.80;99.90
53045;DHT22;38930;52.766;6.884;2022-09-28T01:30:07;7.80;99.90
53045;DHT22;38930;52.766;6.884;2022-09-28T01:35:22;7.80;99.90
53045;DHT22;38930;52.766;6.884;2022-09-28T01:37:53;7.80;99.90
53045;DHT22;38930;52.766;6.884;2022-09-28T01:40:22;7.80;99.90
53045;DHT22;38930;52.766;6.884;2022-09-28T01:42:53;7.70;99.90
53045;DHT22;38930;52.766;6.884;2022-09-28T01:45:25;7.70;99.90
53045;DHT22;38930;52.766;6.884;2022-09-28T01:47:56;7.70;99.90
53045;DHT22;38930;52.766;6.884;2022-09-28T01:50:25;7.70;99.90
53045;DHT22;38930;52.766;6.884;2022-09-28T01:53:03;7.70;99.90
53045;DHT22;38930;52.766;6.884;2022-09-28T01:55:34;7.60;99.90
53045;DHT22;38930;52.766;6.884;2022-09-28T01:58:29;7.60;99.90
53045;DHT22;38930;52.766;6.884;2022-09-28T02:01:01;7.50;99.90
53045;DHT22;38930;52.766;6.884;2022-09-28T02:03:38;7.50;99.90
53045;DHT22;38930;52.766;6.884;2022-09-28T02:06:12;7.40;99.90
53045;DHT22;38930;52.766;6.884;2022-09-28T02:08:44;7.30;99.90
53045;DHT22;38930;52.766;6.884;2022-09-28T02:11:18;7.30;99.90
53045;DHT22;38930;52.766;6.884;2022-09-28T02:13:54;7.30;99.90
53045;DHT22;38930;52.766;6.884;2022-09-28T02:18:55;7.30;99.90
53045;DHT22;38930;52.766;6.884;2022-09-28T02:21:39;7.30;99.90
53045;DHT22;38930;52.766;6.884;2022-09-28T02:24:11;7.20;99.90
53045;DHT22;38930;52.766;6.884;2022-09-28T02:26:40;7.20;99.90
53045;DHT22;38930;52.766;6.884;2022-09-28T02:29:07;7.20;99.90
53045;DHT22;38930;52.766;6.884;2022-09-28T02:31:33;7.20;99.90
53045;DHT22;38930;52.766;6.884;2022-09-28T02:33:59;7.10;99.90
53045;DHT22;38930;52.766;6.884;2022-09-28T02:36:26;7.10;99.90
53045;DHT22;38930;52.766;6.884;2022-09-28T02:38:53;7.00;99.90
53045;DHT22;38930;52.766;6.884;2022-09-28T02:41:45;7.00;99.90
53045;DHT22;38930;52.766;6.884;2022-09-28T02:47:03;7.00;99.90
53045;DHT22;38930;52.766;6.884;2022-09-28T02:55:42;7.00;99.90
53045;DHT22;38930;52.766;6.884;2022-09-28T03:03:30;6.90;99.90
53045;DHT22;38930;52.766;6.884;2022-09-28T03:05:59;6.90;99.90
53045;DHT22;38930;52.766;6.884;2022-09-28T03:08:35;6.80;99.90
53045;DHT22;38930;52.766;6.884;2022-09-28T03:11:07;6.80;99.90
53045;DHT22;38930;52.766;6.884;2022-09-28T03:13:34;6.80;99.90
53045;DHT22;38930;52.766;6.884;2022-09-28T03:16:11;6.80;99.90
53045;DHT22;38930;52.766;6.884;2022-09-28T03:18:37;6.70;99.90
53045;DHT22;38930;52.766;6.884;2022-09-28T03:21:03;6.70;99.90
53045;DHT22;38930;52.766;6.884;2022-09-28T03:23:29;6.60;99.90
53045;DHT22;38930;52.766;6.884;2022-09-28T03:25:55;6.60;99.90
53045;DHT22;38930;52.766;6.884;2022-09-28T03:28:21;6.60;99.90
53045;DHT22;38930;52.766;6.884;2022-09-28T03:30:47;6.60;99.90
53045;DHT22;38930;52.766;6.884;2022-09-28T03:33:12;7.10;99.90
53045;DHT22;38930;52.766;6.884;2022-09-28T03:35:38;6.70;99.90
53045;DHT22;38930;52.766;6.884;2022-09-28T03:38:03;6.70;99.90
53045;DHT22;38930;52.766;6.884;2022-09-28T03:40:29;6.70;99.90
53045;DHT22;38930;52.766;6.884;2022-09-28T03:42:55;6.70;99.90
53045;DHT22;38930;52.766;6.884;2022-09-28T03:45:21;7.00;99.90
53045;DHT22;38930;52.766;6.884;2022-09-28T03:47:47;6.60;99.90
53045;DHT22;38930;52.766;6.884;2022-09-28T03:50:13;6.50;99.90
53045;DHT22;38930;52.766;6.884;2022-09-28T03:52:39;6.50;99.90
53045;DHT22;38930;52.766;6.884;2022-09-28T03:55:05;6.50;99.90
53045;DHT22;38930;52.766;6.884;2022-09-28T03:57:30;6.40;99.90
53045;DHT22;38930;52.766;6.884;2022-09-28T03:59:56;6.40;99.90
53045;DHT22;38930;52.766;6.884;2022-09-28T04:02:21;6.40;99.90
53045;DHT22;38930;52.766;6.884;2022-09-28T04:04:47;6.40;99.90
53045;DHT22;38930;52.766;6.884;2022-09-28T04:07:13;6.30;99.90
53045;DHT22;38930;52.766;6.884;2022-09-28T04:09:38;6.40;99.90
53045;DHT22;38930;52.766;6.884;2022-09-28T04:12:05;6.40;99.90
53045;DHT22;38930;52.766;6.884;2022-09-28T04:14:31;6.40;99.90
53045;DHT22;38930;52.766;6.884;2022-09-28T04:16:56;6.80;99.90
53045;DHT22;38930;52.766;6.884;2022-09-28T04:19:22;6.50;99.90
53045;DHT22;38930;52.766;6.884;2022-09-28T04:21:48;6.50;99.90
53045;DHT22;38930;52.766;6.884;2022-09-28T04:24:15;6.60;99.90
53045;DHT22;38930;52.766;6.884;2022-09-28T04:26:41;6.60;99.90
53045;DHT22;38930;52.766;6.884;2022-09-28T04:29:09;6.70;99.90
53045;DHT22;38930;52.766;6.884;2022-09-28T04:31:47;6.70;99.90
53045;DHT22;38930;52.766;6.884;2022-09-28T04:34:16;6.70;99.90
53045;DHT22;38930;52.766;6.884;2022-09-28T04:36:45;6.80;99.90
53045;DHT22;38930;52.766;6.884;2022-09-28T04:39:12;6.80;99.90
53045;DHT22;38930;52.766;6.884;2022-09-28T04:41:39;6.80;99.90
53045;DHT22;38930;52.766;6.884;2022-09-28T04:44:04;6.80;99.90
53045;DHT22;38930;52.766;6.884;2022-09-28T04:46:30;6.90;99.90
53045;DHT22;38930;52.766;6.884;2022-09-28T04:48:56;6.90;99.90
53045;DHT22;38930;52.766;6.884;2022-09-28T04:51:22;7.00;99.90
53045;DHT22;38930;52.766;6.884;2022-09-28T04:53:47;7.00;99.90
53045;DHT22;38930;52.766;6.884;2022-09-28T04:56:14;7.00;99.90
53045;DHT22;38930;52.766;6.884;2022-09-28T04:58:41;7.10;99.90
53045;DHT22;38930;52.766;6.884;2022-09-28T05:01:10;7.10;99.90
53045;DHT22;38930;52.766;6.884;2022-09-28T05:03:36;7.10;99.90
53045;DHT22;38930;52.766;6.884;2022-09-28T05:06:02;7.10;99.90
53045;DHT22;38930;52.766;6.884;2022-09-28T05:08:28;7.20;99.90
53045;DHT22;38930;52.766;6.884;2022-09-28T05:10:59;7.20;99.90
53045;DHT22;38930;52.766;6.884;2022-09-28T05:13:25;7.20;99.90
53045;DHT22;38930;52.766;6.884;2022-09-28T05:15:52;7.20;99.90
53045;DHT22;38930;52.766;6.884;2022-09-28T05:18:18;7.20;99.90
53045;DHT22;38930;52.766;6.884;2022-09-28T05:20:44;7.90;99.90
53045;DHT22;38930;52.766;6.884;2022-09-28T05:23:10;7.20;99.90
53045;DHT22;38930;52.766;6.884;2022-09-28T05:25:40;7.30;99.90
53045;DHT22;38930;52.766;6.884;2022-09-28T05:28:05;7.30;99.90
53045;DHT22;38930;52.766;6.884;2022-09-28T05:30:32;7.30;99.90
53045;DHT22;38930;52.766;6.884;2022-09-28T05:32:58;7.30;99.90
53045;DHT22;38930;52.766;6.884;2022-09-28T05:35:24;7.30;99.90
53045;DHT22;38930;52.766;6.884;2022-09-28T05:37:49;7.30;99.90
53045;DHT22;38930;52.766;6.884;2022-09-28T05:40:15;7.90;99.90
53045;DHT22;38930;52.766;6.884;2022-09-28T05:42:41;7.30;99.90
53045;DHT22;38930;52.766;6.884;2022-09-28T05:45:08;7.20;99.90
53045;DHT22;38930;52.766;6.884;2022-09-28T05:47:42;7.20;99.90
53045;DHT22;38930;52.766;6.884;2022-09-28T05:50:09;7.20;99.90
53045;DHT22;38930;52.766;6.884;2022-09-28T05:52:40;7.20;99.90
53045;DHT22;38930;52.766;6.884;2022-09-28T05:55:06;7.20;99.90
53045;DHT22;38930;52.766;6.884;2022-09-28T05:57:32;7.20;99.90
53045;DHT22;38930;52.766;6.884;2022-09-28T05:59:58;7.20;99.90
53045;DHT22;38930;52.766;6.884;2022-09-28T06:02:24;7.80;99.90
53045;DHT22;38930;52.766;6.884;2022-09-28T06:04:50;7.30;99.90
53045;DHT22;38930;52.766;6.884;2022-09-28T06:07:19;7.30;99.90
53045;DHT22;38930;52.766;6.884;2022-09-28T06:09:46;7.30;99.90
53045;DHT22;38930;52.766;6.884;2022-09-28T06:12:11;7.30;99.90
53045;DHT22;38930;52.766;6.884;2022-09-28T06:14:37;7.30;99.90
53045;DHT22;38930;52.766;6.884;2022-09-28T06:17:03;7.30;99.90
53045;DHT22;38930;52.766;6.884;2022-09-28T06:19:29;7.70;99.90
53045;DHT22;38930;52.766;6.884;2022-09-28T06:21:55;7.40;99.90
53045;DHT22;38930;52.766;6.884;2022-09-28T06:24:21;7.40;99.90
53045;DHT22;38930;52.766;6.884;2022-09-28T06:26:46;7.50;99.90
53045;DHT22;38930;52.766;6.884;2022-09-28T06:29:12;7.50;99.90
53045;DHT22;38930;52.766;6.884;2022-09-28T06:31:44;7.50;99.90
53045;DHT22;38930;52.766;6.884;2022-09-28T06:34:10;7.50;99.90
53045;DHT22;38930;52.766;6.884;2022-09-28T06:36:37;7.70;99.90
53045;DHT22;38930;52.766;6.884;2022-09-28T06:39:03;7.70;99.90
53045;DHT22;38930;52.766;6.884;2022-09-28T06:41:28;7.50;99.90
53045;DHT22;38930;52.766;6.884;2022-09-28T06:43:54;7.60;99.90
53045;DHT22;38930;52.766;6.884;2022-09-28T06:46:21;8.20;99.90
53045;DHT22;38930;52.766;6.884;2022-09-28T06:48:47;7.70;99.90
53045;DHT22;38930;52.766;6.884;2022-09-28T06:51:13;7.70;99.90
53045;DHT22;38930;52.766;6.884;2022-09-28T06:53:39;7.60;99.90
53045;DHT22;38930;52.766;6.884;2022-09-28T06:56:07;7.70;99.90
53045;DHT22;38930;52.766;6.884;2022-09-28T06:58:33;7.70;99.90
53045;DHT22;38930;52.766;6.884;2022-09-28T07:00:59;7.70;99.90
53045;DHT22;38930;52.766;6.884;2022-09-28T07:03:25;7.70;99.90
53045;DHT22;38930;52.766;6.884;2022-09-28T07:05:52;7.70;99.90
53045;DHT22;38930;52.766;6.884;2022-09-28T07:08:23;7.80;99.90
53045;DHT22;38930;52.766;6.884;2022-09-28T07:10:51;7.90;99.90
53045;DHT22;38930;52.766;6.884;2022-09-28T07:13:26;7.90;99.90
53045;DHT22;38930;52.766;6.884;2022-09-28T07:15:54;8.00;99.90
53045;DHT22;38930;52.766;6.884;2022-09-28T07:18:20;7.90;99.90
53045;DHT22;38930;52.766;6.884;2022-09-28T07:20:48;7.90;99.90
53045;DHT22;38930;52.766;6.884;2022-09-28T07:23:14;8.10;99.90
53045;DHT22;38930;52.766;6.884;2022-09-28T07:25:40;8.60;99.90
53045;DHT22;38930;52.766;6.884;2022-09-28T07:28:10;8.20;99.90
53045;DHT22;38930;52.766;6.884;2022-09-28T07:30:36;8.30;99.90
53045;DHT22;38930;52.766;6.884;2022-09-28T07:33:04;8.70;99.90
53045;DHT22;38930;52.766;6.884;2022-09-28T07:35:30;8.20;99.90
53045;DHT22;38930;52.766;6.884;2022-09-28T07:38:03;8.20;99.90
53045;DHT22;38930;52.766;6.884;2022-09-28T07:40:29;8.20;99.90
53045;DHT22;38930;52.766;6.884;2022-09-28T07:43:14;8.30;99.90
53045;DHT22;38930;52.766;6.884;2022-09-28T07:45:49;8.40;99.90
53045;DHT22;38930;52.766;6.884;2022-09-28T07:48:15;8.40;99.90
53045;DHT22;38930;52.766;6.884;2022-09-28T07:53:17;8.50;99.90
53045;DHT22;38930;52.766;6.884;2022-09-28T07:55:49;8.60;99.90
53045;DHT22;38930;52.766;6.884;2022-09-28T07:58:14;9.40;99.90
53045;DHT22;38930;52.766;6.884;2022-09-28T08:00:40;8.90;99.90
53045;DHT22;38930;52.766;6.884;2022-09-28T08:03:05;8.90;99.90
53045;DHT22;38930;52.766;6.884;2022-09-28T08:05:31;9.00;99.90
53045;DHT22;38930;52.766;6.884;2022-09-28T08:07:59;9.10;99.90
53045;DHT22;38930;52.766;6.884;2022-09-28T08:10:25;9.20;99.90
53045;DHT22;38930;52.766;6.884;2022-09-28T08:12:55;9.90;99.90
53045;DHT22;38930;52.766;6.884;2022-09-28T08:15:21;9.40;99.90
53045;DHT22;38930;52.766;6.884;2022-09-28T08:17:47;9.40;99.90
53045;DHT22;38930;52.766;6.884;2022-09-28T08:20:13;9.30;99.90
53045;DHT22;38930;52.766;6.884;2022-09-28T08:23:07;9.30;99.90
53045;DHT22;38930;52.766;6.884;2022-09-28T08:25:34;9.30;99.90
53045;DHT22;38930;52.766;6.884;2022-09-28T08:28:03;9.50;99.90
53045;DHT22;38930;52.766;6.884;2022-09-28T08:30:30;9.30;99.90
53045;DHT22;38930;52.766;6.884;2022-09-28T08:32:56;9.40;99.90
53045;DHT22;38930;52.766;6.884;2022-09-28T08:35:22;9.40;99.90
53045;DHT22;38930;52.766;6.884;2022-09-28T08:37:51;9.70;99.90
53045;DHT22;38930;52.766;6.884;2022-09-28T08:40:21;9.60;99.90
53045;DHT22;38930;52.766;6.884;2022-09-28T08:42:52;9.70;99.90
53045;DHT22;38930;52.766;6.884;2022-09-28T08:45:27;10.00;99.90
53045;DHT22;38930;52.766;6.884;2022-09-28T08:51:14;9.90;99.90
53045;DHT22;38930;52.766;6.884;2022-09-28T08:54:02;10.10;99.90
53045;DHT22;38930;52.766;6.884;2022-09-28T08:56:43;10.20;99.90
53045;DHT22;38930;52.766;6.884;2022-09-28T08:59:21;10.30;99.90
53045;DHT22;38930;52.766;6.884;2022-09-28T09:01:52;10.30;99.90
53045;DHT22;38930;52.766;6.884;2022-09-28T09:04:20;10.40;99.90
53045;DHT22;38930;52.766;6.884;2022-09-28T09:12:37;10.50;99.90
53045;DHT22;38930;52.766;6.884;2022-09-28T09:15:24;10.50;99.90
53045;DHT22;38930;52.766;6.884;2022-09-28T09:20:56;10.40;99.90
53045;DHT22;38930;52.766;6.884;2022-09-28T09:23:35;10.50;99.90
53045;DHT22;38930;52.766;6.884;2022-09-28T09:26:16;10.60;99.90
53045;DHT22;38930;52.766;6.884;2022-09-28T09:29:06;10.60;99.90
53045;DHT22;38930;52.766;6.884;2022-09-28T09:34:53;10.60;99.90
53045;DHT22;38930;52.766;6.884;2022-09-28T09:39:55;10.50;99.90
53045;DHT22;38930;52.766;6.884;2022-09-28T09:45:23;10.80;99.90
53045;DHT22;38930;52.766;6.884;2022-09-28T09:48:02;11.30;99.90
53045;DHT22;38930;52.766;6.884;2022-09-28T09:55:45;11.00;99.90
53045;DHT22;38930;52.766;6.884;2022-09-28T09:58:28;11.00;99.90
53045;DHT22;38930;52.766;6.884;2022-09-28T10:01:22;11.10;99.90
53045;DHT22;38930;52.766;6.884;2022-09-28T10:03:47;11.20;99.90
53045;DHT22;38930;52.766;6.884;2022-09-28T10:06:25;11.30;99.90
53045;DHT22;38930;52.766;6.884;2022-09-28T10:09:29;11.40;99.90
53045;DHT22;38930;52.766;6.884;2022-09-28T10:11:54;11.60;99.90
53045;DHT22;38930;52.766;6.884;2022-09-28T10:14:22;11.70;99.90
53045;DHT22;38930;52.766;6.884;2022-09-28T10:16:49;12.10;99.90
53045;DHT22;38930;52.766;6.884;2022-09-28T10:19:18;12.10;99.90
53045;DHT22;38930;52.766;6.884;2022-09-28T10:21:46;12.30;99.90
53045;DHT22;38930;52.766;6.884;2022-09-28T10:24:38;12.50;99.90
53045;DHT22;38930;52.766;6.884;2022-09-28T10:27:17;12.70;99.90
53045;DHT22;38930;52.766;6.884;2022-09-28T10:29:53;13.10;99.90
53045;DHT22;38930;52.766;6.884;2022-09-28T10:32:24;12.90;99.90
53045;DHT22;38930;52.766;6.884;2022-09-28T10:34:51;13.00;99.90
53045;DHT22;38930;52.766;6.884;2022-09-28T10:37:18;13.10;99.90
53045;DHT22;38930;52.766;6.884;2022-09-28T10:39:51;13.10;99.90
53045;DHT22;38930;52.766;6.884;2022-09-28T10:42:27;13.20;99.90
53045;DHT22;38930;52.766;6.884;2022-09-28T10:45:03;13.30;99.90
53045;DHT22;38930;52.766;6.884;2022-09-28T10:47:32;13.40;99.90
53045;DHT22;38930;52.766;6.884;2022-09-28T10:50:00;13.50;99.90
53045;DHT22;38930;52.766;6.884;2022-09-28T10:55:02;13.60;99.90
53045;DHT22;38930;52.766;6.884;2022-09-28T10:57:33;13.50;99.90
53045;DHT22;38930;52.766;6.884;2022-09-28T10:59:59;13.70;99.90
53045;DHT22;38930;52.766;6.884;2022-09-28T11:02:29;13.70;99.90
53045;DHT22;38930;52.766;6.884;2022-09-28T11:04:57;13.90;99.90
53045;DHT22;38930;52.766;6.884;2022-09-28T11:07:27;14.10;99.90
53045;DHT22;38930;52.766;6.884;2022-09-28T11:09:55;14.20;99.90
53045;DHT22;38930;52.766;6.884;2022-09-28T11:12:26;14.20;99.90
53045;DHT22;38930;52.766;6.884;2022-09-28T11:15:02;14.10;99.90
53045;DHT22;38930;52.766;6.884;2022-09-28T11:20:20;14.20;99.90
53045;DHT22;38930;52.766;6.884;2022-09-28T11:22:48;13.70;99.90
53045;DHT22;38930;52.766;6.884;2022-09-28T11:28:00;13.70;99.90
53045;DHT22;38930;52.766;6.884;2022-09-28T11:30:45;13.70;99.90
53045;DHT22;38930;52.766;6.884;2022-09-28T11:33:34;13.80;99.90
53045;DHT22;38930;52.766;6.884;2022-09-28T11:38:58;13.80;99.90
53045;DHT22;38930;52.766;6.884;2022-09-28T11:41:41;13.80;99.90
53045;DHT22;38930;52.766;6.884;2022-09-28T11:44:27;13.90;99.90
53045;DHT22;38930;52.766;6.884;2022-09-28T11:47:03;14.00;99.90
53045;DHT22;38930;52.766;6.884;2022-09-28T11:49:39;14.10;99.90
53045;DHT22;38930;52.766;6.884;2022-09-28T11:52:12;14.10;99.90
53045;DHT22;38930;52.766;6.884;2022-09-28T11:54:49;14.20;99.90
53045;DHT22;38930;52.766;6.884;2022-09-28T11:57:21;14.40;99.90
53045;DHT22;38930;52.766;6.884;2022-09-28T12:00:00;14.60;99.90
53045;DHT22;38930;52.766;6.884;2022-09-28T12:02:38;14.60;99.90
53045;DHT22;38930;52.766;6.884;2022-09-28T12:05:19;14.70;99.90
53045;DHT22;38930;52.766;6.884;2022-09-28T12:07:53;14.90;99.90
53045;DHT22;38930;52.766;6.884;2022-09-28T12:10:35;15.20;99.90
53045;DHT22;38930;52.766;6.884;2022-09-28T12:13:07;15.40;99.90
53045;DHT22;38930;52.766;6.884;2022-09-28T12:18:36;15.60;99.90
53045;DHT22;38930;52.766;6.884;2022-09-28T12:21:54;15.70;99.90
53045;DHT22;38930;52.766;6.884;2022-09-28T12:24:10;15.70;99.90
53045;DHT22;38930;52.766;6.884;2022-09-28T12:26:50;15.80;99.90
53045;DHT22;38930;52.766;6.884;2022-09-28T12:29:44;15.80;99.90
53045;DHT22;38930;52.766;6.884;2022-09-28T12:32:24;15.80;99.90
53045;DHT22;38930;52.766;6.884;2022-09-28T12:34:51;15.70;99.90
53045;DHT22;38930;52.766;6.884;2022-09-28T12:38:24;15.70;99.90
53045;DHT22;38930;52.766;6.884;2022-09-28T12:40:22;15.70;99.90
53045;DHT22;38930;52.766;6.884;2022-09-28T12:43:16;15.70;99.90
53045;DHT22;38930;52.766;6.884;2022-09-28T12:48:35;15.80;99.90
53045;DHT22;38930;52.766;6.884;2022-09-28T13:07:13;15.60;99.90
53045;DHT22;38930;52.766;6.884;2022-09-28T13:15:38;15.20;99.90
53045;DHT22;38930;52.766;6.884;2022-09-28T13:20:48;15.10;99.90
53045;DHT22;38930;52.766;6.884;2022-09-28T13:26:21;14.90;99.90
53045;DHT22;38930;52.766;6.884;2022-09-28T13:28:50;14.80;99.90
53045;DHT22;38930;52.766;6.884;2022-09-28T13:31:23;14.80;99.90
53045;DHT22;38930;52.766;6.884;2022-09-28T13:33:55;14.70;99.90
53045;DHT22;38930;52.766;6.884;2022-09-28T13:38:56;14.60;99.90
53045;DHT22;38930;52.766;6.884;2022-09-28T13:41:36;14.60;99.90
53045;DHT22;38930;52.766;6.884;2022-09-28T13:47:09;15.00;99.90
53045;DHT22;38930;52.766;6.884;2022-09-28T13:52:38;14.70;99.90
53045;DHT22;38930;52.766;6.884;2022-09-28T13:55:24;14.70;99.90
53045;DHT22;38930;52.766;6.884;2022-09-28T13:57:54;14.80;99.90
53045;DHT22;38930;52.766;6.884;2022-09-28T14:03:24;15.00;99.90
53045;DHT22;38930;52.766;6.884;2022-09-28T14:06:07;15.00;99.90
53045;DHT22;38930;52.766;6.884;2022-09-28T14:08:44;15.10;99.90
53045;DHT22;38930;52.766;6.884;2022-09-28T14:16:42;15.50;99.90
53045;DHT22;38930;52.766;6.884;2022-09-28T14:19:19;15.50;99.90
53045;DHT22;38930;52.766;6.884;2022-09-28T14:22:05;15.40;99.90
53045;DHT22;38930;52.766;6.884;2022-09-28T14:27:58;15.40;99.90
53045;DHT22;38930;52.766;6.884;2022-09-28T14:33:26;15.10;99.90
53045;DHT22;38930;52.766;6.884;2022-09-28T14:36:00;14.90;99.90
53045;DHT22;38930;52.766;6.884;2022-09-28T14:38:31;14.80;99.90
53045;DHT22;38930;52.766;6.884;2022-09-28T14:41:32;14.60;99.90
53045;DHT22;38930;52.766;6.884;2022-09-28T14:44:01;14.60;99.90
53045;DHT22;38930;52.766;6.884;2022-09-28T14:46:35;14.60;99.90
53045;DHT22;38930;52.766;6.884;2022-09-28T14:49:04;14.60;99.90
53045;DHT22;38930;52.766;6.884;2022-09-28T14:56:43;14.30;99.90
53045;DHT22;38930;52.766;6.884;2022-09-28T14:59:21;14.20;99.90
53045;DHT22;38930;52.766;6.884;2022-09-28T15:02:06;14.10;99.90
53045;DHT22;38930;52.766;6.884;2022-09-28T15:04:34;14.00;99.90
53045;DHT22;38930;52.766;6.884;2022-09-28T15:07:03;13.90;99.90
53045;DHT22;38930;52.766;6.884;2022-09-28T15:09:30;13.80;99.90
53045;DHT22;38930;52.766;6.884;2022-09-28T15:12:45;13.80;99.90
53045;DHT22;38930;52.766;6.884;2022-09-28T15:17:30;13.70;99.90
53045;DHT22;38930;52.766;6.884;2022-09-28T15:22:27;13.40;99.90
53045;DHT22;38930;52.766;6.884;2022-09-28T15:24:59;13.30;99.90
53045;DHT22;38930;52.766;6.884;2022-09-28T15:27:34;13.10;99.90
53045;DHT22;38930;52.766;6.884;2022-09-28T15:30:14;12.90;99.90
53045;DHT22;38930;52.766;6.884;2022-09-28T15:32:40;12.80;99.90
53045;DHT22;38930;52.766;6.884;2022-09-28T15:35:17;12.70;99.90
53045;DHT22;38930;52.766;6.884;2022-09-28T15:37:48;12.60;99.90
53045;DHT22;38930;52.766;6.884;2022-09-28T15:40:37;12.50;99.90
53045;DHT22;38930;52.766;6.884;2022-09-28T15:45:56;12.40;99.90
53045;DHT22;38930;52.766;6.884;2022-09-28T15:48:53;12.50;99.90
53045;DHT22;38930;52.766;6.884;2022-09-28T15:51:22;12.40;99.90
53045;DHT22;38930;52.766;6.884;2022-09-28T15:53:57;12.30;99.90
53045;DHT22;38930;52.766;6.884;2022-09-28T15:56:26;12.30;99.90
53045;DHT22;38930;52.766;6.884;2022-09-28T16:01:37;12.20;99.90
53045;DHT22;38930;52.766;6.884;2022-09-28T16:07:20;12.10;99.90
53045;DHT22;38930;52.766;6.884;2022-09-28T16:15:09;12.00;99.90
53045;DHT22;38930;52.766;6.884;2022-09-28T16:17:38;12.10;99.90
53045;DHT22;38930;52.766;6.884;2022-09-28T16:20:22;12.00;99.90
53045;DHT22;38930;52.766;6.884;2022-09-28T16:22:49;12.00;99.90
53045;DHT22;38930;52.766;6.884;2022-09-28T16:25:23;11.90;99.90
53045;DHT22;38930;52.766;6.884;2022-09-28T16:27:51;12.00;99.90
53045;DHT22;38930;52.766;6.884;2022-09-28T16:30:26;12.00;99.90
53045;DHT22;38930;52.766;6.884;2022-09-28T16:38:02;12.00;99.90
53045;DHT22;38930;52.766;6.884;2022-09-28T16:40:29;11.90;99.90
53045;DHT22;38930;52.766;6.884;2022-09-28T16:42:56;11.90;99.90
53045;DHT22;38930;52.766;6.884;2022-09-28T16:45:22;11.90;99.90
53045;DHT22;38930;52.766;6.884;2022-09-28T16:47:49;11.80;99.90
53045;DHT22;38930;52.766;6.884;2022-09-28T16:50:21;11.80;99.90
53045;DHT22;38930;52.766;6.884;2022-09-28T16:53:11;11.80;99.90
53045;DHT22;38930;52.766;6.884;2022-09-28T16:55:57;11.70;99.90
53045;DHT22;38930;52.766;6.884;2022-09-28T16:58:22;11.70;99.90
53045;DHT22;38930;52.766;6.884;2022-09-28T17:00:49;11.80;99.90
53045;DHT22;38930;52.766;6.884;2022-09-28T17:03:17;11.70;99.90
53045;DHT22;38930;52.766;6.884;2022-09-28T17:05:43;11.60;99.90
53045;DHT22;38930;52.766;6.884;2022-09-28T17:08:13;11.60;99.90
53045;DHT22;38930;52.766;6.884;2022-09-28T17:10:56;11.50;99.90
53045;DHT22;38930;52.766;6.884;2022-09-28T17:13:25;11.50;99.90
53045;DHT22;38930;52.766;6.884;2022-09-28T17:16:02;11.50;99.90
53045;DHT22;38930;52.766;6.884;2022-09-28T17:18:29;11.40;99.90
53045;DHT22;38930;52.766;6.884;2022-09-28T17:20:57;11.30;99.90
53045;DHT22;38930;52.766;6.884;2022-09-28T17:23:24;11.30;99.90
53045;DHT22;38930;52.766;6.884;2022-09-28T17:25:50;11.50;99.90
53045;DHT22;38930;52.766;6.884;2022-09-28T17:28:33;11.20;99.90
53045;DHT22;38930;52.766;6.884;2022-09-28T17:30:59;11.10;99.90
53045;DHT22;38930;52.766;6.884;2022-09-28T17:33:24;11.20;99.90
53045;DHT22;38930;52.766;6.884;2022-09-28T17:35:58;11.00;99.90
53045;DHT22;38930;52.766;6.884;2022-09-28T17:38:24;10.90;99.90
53045;DHT22;38930;52.766;6.884;2022-09-28T17:40:50;10.80;99.90
53045;DHT22;38930;52.766;6.884;2022-09-28T17:43:15;10.80;99.90
53045;DHT22;38930;52.766;6.884;2022-09-28T17:45:44;10.80;99.90
53045;DHT22;38930;52.766;6.884;2022-09-28T17:48:15;10.90;99.90
53045;DHT22;38930;52.766;6.884;2022-09-28T17:50:42;10.60;99.90
53045;DHT22;38930;52.766;6.884;2022-09-28T17:53:09;10.60;99.90
53045;DHT22;38930;52.766;6.884;2022-09-28T17:55:36;10.60;99.90
53045;DHT22;38930;52.766;6.884;2022-09-28T17:58:10;10.60;99.90
53045;DHT22;38930;52.766;6.884;2022-09-28T18:00:37;10.40;99.90
53045;DHT22;38930;52.766;6.884;2022-09-28T18:03:02;10.30;99.90
53045;DHT22;38930;52.766;6.884;2022-09-28T18:05:30;10.30;99.90
53045;DHT22;38930;52.766;6.884;2022-09-28T18:07:56;10.30;99.90
53045;DHT22;38930;52.766;6.884;2022-09-28T18:10:23;10.20;99.90
53045;DHT22;38930;52.766;6.884;2022-09-28T18:12:50;10.20;99.90
53045;DHT22;38930;52.766;6.884;2022-09-28T18:15:17;10.10;99.90
53045;DHT22;38930;52.766;6.884;2022-09-28T18:17:43;10.10;99.90
53045;DHT22;38930;52.766;6.884;2022-09-28T18:20:10;10.00;99.90
53045;DHT22;38930;52.766;6.884;2022-09-28T18:22:36;10.00;99.90
53045;DHT22;38930;52.766;6.884;2022-09-28T18:25:03;10.00;99.90
53045;DHT22;38930;52.766;6.884;2022-09-28T18:27:29;9.90;99.90
53045;DHT22;38930;52.766;6.884;2022-09-28T18:29:55;10.00;99.90
53045;DHT22;38930;52.766;6.884;2022-09-28T18:32:21;9.90;99.90
53045;DHT22;38930;52.766;6.884;2022-09-28T18:34:47;9.90;99.90